Time;durP1;ratioP1;P1;durP2;ratioP2;P2;SDS_P1;SDS_P2;PMS_P1;PMS_P2;Temp;Humidity;BMP_temperature;BMP_pressure;BME280_temperature;BME280_humidity;BME280_pressure;Samples;Min_cycle;Max_cycle;Signal;HPM_P1;HPM_P2
2022/02/25 00:01:10;;;;;;;20.85;19.85;;;5.40;80.10;;;;;;5073904;28;20223;-72
2022/02/25 00:03:37;;;;;;;20.75;19.60;;;5.30;78.40;;;;;;5074134;28;20210;-72
2022/02/25 00:06:04;;;;;;;20.13;19.13;;;5.30;78.10;;;;;;5074102;28;20201;-72
2022/02/25 00:08:33;;;;;;;23.90;22.70;;;5.20;78.50;;;;;;5073956;28;20281;-72
2022/02/25 00:11:00;;;;;;;20.83;19.83;;;5.10;79.00;;;;;;5073957;28;20250;-72
2022/02/25 00:13:27;;;;;;;21.40;19.90;;;5.20;79.20;;;;;;5074079;28;20225;-73
2022/02/25 00:15:57;;;;;;;20.98;19.92;;;5.30;78.80;;;;;;5073757;28;20761;-72
2022/02/25 00:18:25;;;;;;;20.20;18.85;;;5.20;79.80;;;;;;5073977;28;20297;-72
2022/02/25 00:20:52;;;;;;;20.52;19.33;;;5.20;79.10;;;;;;5073633;28;20224;-73
2022/02/25 00:23:19;;;;;;;20.73;19.67;;;5.20;78.60;;;;;;5073757;28;20741;-73
2022/02/25 00:25:48;;;;;;;20.67;19.35;;;5.10;78.90;;;;;;5073581;28;20726;-73
2022/02/25 00:28:15;;;;;;;20.05;18.95;;;5.10;79.60;;;;;;5073476;28;20630;-72
2022/02/25 00:30:42;;;;;;;21.90;20.38;;;5.00;78.60;;;;;;5073037;28;20200;-72
2022/02/25 00:33:11;;;;;;;20.10;19.00;;;5.00;79.50;;;;;;5073671;28;20194;-72
2022/02/25 00:35:38;;;;;;;19.45;18.48;;;5.00;81.90;;;;;;5073346;28;20280;-73
2022/02/25 00:38:05;;;;;;;19.60;18.58;;;5.00;79.70;;;;;;5073244;28;20289;-72
2022/02/25 00:40:32;;;;;;;19.63;18.73;;;5.00;79.80;;;;;;5073235;28;20235;-73
2022/02/25 00:43:01;;;;;;;20.00;19.05;;;5.00;80.80;;;;;;5073348;28;20288;-72
2022/02/25 00:45:28;;;;;;;20.15;19.15;;;5.00;80.40;;;;;;5073216;28;20758;-72
2022/02/25 00:47:54;;;;;;;20.85;19.55;;;5.00;80.30;;;;;;5073283;28;20202;-73
2022/02/25 00:50:21;;;;;;;19.98;18.92;;;5.00;79.80;;;;;;5073045;28;20206;-72
2022/02/25 00:52:48;;;;;;;19.92;19.00;;;5.00;79.40;;;;;;5073132;28;20238;-72
2022/02/25 00:55:15;;;;;;;19.52;18.45;;;5.00;82.40;;;;;;5073069;28;20312;-72
2022/02/25 00:57:49;;;;;;;19.13;18.13;;;5.10;81.60;;;;;;5073117;28;20198;-72
2022/02/25 01:00:20;;;;;;;20.75;19.58;;;5.10;79.70;;;;;;5072743;28;20194;-73
2022/02/25 01:02:47;;;;;;;20.70;19.30;;;5.00;79.50;;;;;;5073159;28;20304;-73
2022/02/25 01:05:14;;;;;;;19.75;18.55;;;5.00;79.50;;;;;;5073050;28;20282;-72
2022/02/25 01:07:43;;;;;;;19.45;18.35;;;5.00;79.10;;;;;;5072941;28;20198;-72
2022/02/25 01:10:11;;;;;;;19.75;18.65;;;5.00;79.20;;;;;;5072697;28;20656;-72
2022/02/25 01:12:38;;;;;;;19.58;18.55;;;4.90;79.70;;;;;;5072956;28;20304;-73
2022/02/25 01:15:07;;;;;;;19.48;18.48;;;4.90;79.20;;;;;;5072828;28;20321;-72
2022/02/25 01:17:37;;;;;;;19.45;18.45;;;4.80;78.70;;;;;;5072919;28;20233;-72
2022/02/25 01:20:06;;;;;;;20.67;19.30;;;4.80;79.50;;;;;;5072684;28;20198;-72
2022/02/25 01:22:33;;;;;;;20.10;19.00;;;4.70;78.30;;;;;;5072450;28;20643;-72
2022/02/25 01:25:00;;;;;;;20.13;19.02;;;4.70;78.80;;;;;;5072667;28;20285;-73
2022/02/25 01:27:28;;;;;;;19.85;18.80;;;4.70;78.80;;;;;;5072597;28;20288;-72
2022/02/25 01:29:55;;;;;;;20.23;19.13;;;4.60;78.60;;;;;;5072553;28;20654;-73
2022/02/25 01:32:22;;;;;;;20.83;19.42;;;4.50;77.90;;;;;;5072251;28;20300;-72
2022/02/25 01:34:50;;;;;;;20.20;19.20;;;4.40;77.80;;;;;;5072528;28;20193;-73
2022/02/25 01:37:17;;;;;;;20.30;18.95;;;4.40;77.30;;;;;;5072466;28;20193;-72
2022/02/25 01:39:44;;;;;;;20.35;19.35;;;4.20;77.40;;;;;;5072414;28;20194;-72
2022/02/25 01:42:11;;;;;;;20.30;19.30;;;4.20;77.70;;;;;;5072506;28;20218;-72
2022/02/25 01:44:41;;;;;;;19.63;18.73;;;4.20;77.90;;;;;;5072734;28;20288;-72
2022/02/25 01:47:09;;;;;;;19.67;18.67;;;4.20;77.40;;;;;;5072493;28;20198;-72
2022/02/25 01:49:36;;;;;;;19.92;18.83;;;4.20;77.00;;;;;;5072214;28;20201;-72
2022/02/25 01:52:06;;;;;;;20.60;19.40;;;4.20;76.70;;;;;;5072479;28;20224;-72
2022/02/25 01:54:34;;;;;;;20.17;19.17;;;4.00;76.20;;;;;;5072451;28;20682;-72
2022/02/25 01:57:02;;;;;;;19.90;18.80;;;4.00;76.40;;;;;;5072406;28;20307;-73
2022/02/25 01:59:31;;;;;;;19.10;18.00;;;4.00;76.50;;;;;;5072268;28;20679;-72
2022/02/25 02:01:59;;;;;;;20.25;19.10;;;3.90;78.50;;;;;;5072531;28;20254;-72
2022/02/25 02:04:26;;;;;;;19.45;18.52;;;3.90;77.40;;;;;;5072368;28;20204;-72
2022/02/25 02:06:53;;;;;;;20.30;19.20;;;3.90;76.90;;;;;;5072379;28;20275;-72
2022/02/25 02:09:22;;;;;;;20.35;19.25;;;3.90;76.60;;;;;;5072133;28;20672;-72
2022/02/25 02:11:53;;;;;;;20.85;19.55;;;3.90;76.90;;;;;;5072210;28;20213;-72
2022/02/25 02:14:22;;;;;;;19.63;18.63;;;3.90;77.00;;;;;;5076241;28;20757;-72
2022/02/25 02:16:53;;;;;;;20.67;19.25;;;3.90;77.00;;;;;;5076138;28;20303;-73
2022/02/25 02:19:21;;;;;;;20.15;19.10;;;3.90;76.60;;;;;;5076038;28;20287;-72
2022/02/25 02:21:50;;;;;;;20.02;18.92;;;3.90;76.90;;;;;;5076130;28;20625;-72
2022/02/25 02:24:19;;;;;;;20.77;19.67;;;3.80;76.70;;;;;;5076086;28;20203;-73
2022/02/25 02:26:48;;;;;;;20.20;18.98;;;3.90;76.40;;;;;;5075962;28;20193;-72
2022/02/25 02:29:15;;;;;;;20.88;19.80;;;3.80;76.30;;;;;;5075685;28;20199;-72
2022/02/25 02:31:42;;;;;;;20.85;19.65;;;3.80;76.50;;;;;;5075867;28;20309;-72
2022/02/25 02:34:12;;;;;;;20.10;19.15;;;3.80;76.50;;;;;;5075850;28;20206;-72
2022/02/25 02:36:39;;;;;;;20.77;19.58;;;3.80;76.60;;;;;;5075498;28;20217;-73
2022/02/25 02:39:07;;;;;;;20.60;19.40;;;3.80;77.00;;;;;;5075664;28;20198;-72
2022/02/25 02:41:36;;;;;;;20.70;19.25;;;3.80;76.50;;;;;;5075638;28;20706;-72
2022/02/25 02:44:03;;;;;;;20.38;19.35;;;3.80;76.80;;;;;;5075749;28;20222;-72
2022/02/25 02:46:30;;;;;;;21.60;20.40;;;3.70;76.00;;;;;;5075602;28;20286;-72
2022/02/25 02:48:57;;;;;;;20.85;19.63;;;3.60;76.70;;;;;;5075532;28;20193;-72
2022/02/25 02:51:24;;;;;;;20.60;19.30;;;3.60;76.50;;;;;;5075299;28;20712;-72
2022/02/25 02:53:51;;;;;;;20.88;19.77;;;3.60;76.50;;;;;;5075488;28;20211;-72
2022/02/25 02:56:18;;;;;;;21.60;19.98;;;3.50;76.60;;;;;;5075240;28;20714;-72
2022/02/25 02:58:54;;;;;;;20.73;19.63;;;3.50;76.90;;;;;;5075301;28;20687;-72
2022/02/25 03:01:21;;;;;;;20.60;19.40;;;3.50;78.00;;;;;;5075189;28;20219;-72
2022/02/25 03:03:48;;;;;;;20.58;19.58;;;3.60;77.40;;;;;;5075375;28;20711;-72
2022/02/25 03:06:14;;;;;;;21.60;20.30;;;3.60;78.50;;;;;;5075238;28;20744;-72
2022/02/25 03:08:41;;;;;;;21.92;20.27;;;3.50;78.00;;;;;;5075100;28;20387;-72
2022/02/25 03:11:08;;;;;;;21.52;20.38;;;3.40;78.10;;;;;;5074941;28;20241;-72
2022/02/25 03:13:35;;;;;;;20.48;19.38;;;3.40;78.00;;;;;;5075197;28;20199;-72
2022/02/25 03:16:04;;;;;;;20.70;19.70;;;3.40;78.20;;;;;;5074996;28;20794;-72
2022/02/25 03:18:31;;;;;;;20.45;19.30;;;3.50;78.00;;;;;;5074955;28;20205;-72
2022/02/25 03:20:58;;;;;;;21.42;20.13;;;3.60;78.80;;;;;;5074751;28;20308;-72
2022/02/25 03:23:24;;;;;;;21.20;19.73;;;3.60;78.00;;;;;;5074165;28;20227;-73
2022/02/25 03:25:51;;;;;;;21.65;20.33;;;3.50;81.50;;;;;;5074426;28;20276;-72
2022/02/25 03:28:18;;;;;;;21.27;19.90;;;3.50;79.80;;;;;;5074994;28;20203;-72
2022/02/25 03:30:45;;;;;;;21.70;19.98;;;3.40;79.30;;;;;;5074505;28;20249;-72
2022/02/25 03:33:13;;;;;;;21.90;20.50;;;3.40;79.00;;;;;;5074902;28;20274;-72
2022/02/25 03:35:44;;;;;;;21.83;20.60;;;3.40;78.90;;;;;;5074527;28;20207;-72
2022/02/25 03:38:10;;;;;;;21.80;20.20;;;3.40;79.20;;;;;;5074322;28;20217;-72
2022/02/25 03:40:38;;;;;;;21.90;20.50;;;3.30;79.70;;;;;;5074536;28;20204;-72
2022/02/25 03:43:04;;;;;;;21.52;20.02;;;3.20;80.50;;;;;;5074605;28;20200;-72
2022/02/25 03:45:31;;;;;;;21.55;20.35;;;3.20;80.70;;;;;;5074568;28;20201;-72
2022/02/25 03:47:58;;;;;;;21.40;20.02;;;3.10;81.00;;;;;;5074523;28;21136;-72
2022/02/25 03:50:27;;;;;;;20.70;19.50;;;3.10;81.10;;;;;;5074065;28;20654;-72
2022/02/25 03:52:54;;;;;;;21.45;20.02;;;3.00;81.30;;;;;;5074318;28;20215;-72
2022/02/25 03:55:21;;;;;;;21.60;20.40;;;3.00;81.70;;;;;;5074398;28;20707;-72
2022/02/25 03:57:47;;;;;;;20.42;19.20;;;3.00;82.00;;;;;;5074306;28;20271;-72
2022/02/25 04:00:16;;;;;;;21.55;20.00;;;3.00;82.00;;;;;;5074395;28;20749;-72
2022/02/25 04:02:43;;;;;;;21.05;19.85;;;3.00;82.10;;;;;;5074235;28;20233;-72
2022/02/25 04:05:11;;;;;;;20.75;19.60;;;3.00;81.70;;;;;;5074144;28;20207;-72
2022/02/25 04:07:41;;;;;;;20.13;19.08;;;2.90;82.10;;;;;;5074052;28;20192;-72
2022/02/25 04:10:09;;;;;;;22.02;20.63;;;2.70;82.20;;;;;;5073887;28;20210;-72
2022/02/25 04:12:36;;;;;;;21.25;20.05;;;2.70;82.80;;;;;;5073998;28;20709;-72
2022/02/25 04:15:04;;;;;;;23.20;21.80;;;2.70;83.00;;;;;;5073931;28;20604;-72
2022/02/25 04:17:31;;;;;;;22.70;21.17;;;2.70;82.60;;;;;;5073849;28;20245;-72
2022/02/25 04:19:58;;;;;;;21.90;20.35;;;2.70;82.70;;;;;;5073682;28;20246;-72
2022/02/25 04:22:25;;;;;;;22.05;20.30;;;2.70;82.60;;;;;;5073789;28;20262;-72
2022/02/25 04:24:53;;;;;;;23.67;22.20;;;2.70;82.80;;;;;;5073781;28;20288;-72
2022/02/25 04:27:21;;;;;;;21.38;19.92;;;2.70;82.90;;;;;;5073660;28;20200;-72
2022/02/25 04:29:48;;;;;;;21.70;20.45;;;2.70;82.70;;;;;;5073537;28;20209;-72
2022/02/25 04:32:15;;;;;;;21.15;19.83;;;2.70;82.50;;;;;;5073218;28;20229;-72
2022/02/25 04:34:42;;;;;;;21.30;20.00;;;2.80;82.00;;;;;;5073181;28;20254;-72
2022/02/25 04:37:09;;;;;;;24.02;22.40;;;2.80;82.00;;;;;;5073193;28;20240;-72
2022/02/25 04:39:36;;;;;;;21.15;19.95;;;2.90;81.80;;;;;;5073307;28;20569;-72
2022/02/25 04:42:05;;;;;;;23.20;21.67;;;2.90;81.60;;;;;;5073330;28;20324;-73
2022/02/25 04:44:32;;;;;;;21.15;19.80;;;2.90;81.10;;;;;;5073362;28;20279;-72
2022/02/25 04:46:59;;;;;;;22.05;20.75;;;3.00;80.80;;;;;;5073219;28;20290;-72
2022/02/25 04:49:26;;;;;;;21.25;19.95;;;2.90;81.20;;;;;;5072992;28;20247;-72
2022/02/25 04:51:52;;;;;;;21.50;20.10;;;2.90;81.40;;;;;;5073309;28;20227;-72
2022/02/25 04:54:19;;;;;;;20.80;19.60;;;3.00;81.30;;;;;;5073271;28;20220;-72
2022/02/25 04:56:49;;;;;;;21.73;20.52;;;3.00;81.20;;;;;;5072987;28;20723;-72
2022/02/25 04:59:17;;;;;;;22.75;21.40;;;3.10;81.20;;;;;;5072815;28;20657;-72
2022/02/25 05:01:46;;;;;;;21.70;20.35;;;3.10;81.20;;;;;;5073042;28;20228;-72
2022/02/25 05:04:13;;;;;;;22.33;20.55;;;3.10;81.00;;;;;;5073035;28;20200;-72
2022/02/25 05:06:40;;;;;;;22.67;21.20;;;3.20;81.00;;;;;;5072953;28;20677;-73
2022/02/25 05:09:07;;;;;;;22.88;21.30;;;3.20;80.90;;;;;;5072892;28;20298;-72
2022/02/25 05:11:34;;;;;;;22.20;20.98;;;3.30;81.00;;;;;;5072703;28;20223;-72
2022/02/25 05:14:02;;;;;;;22.05;20.70;;;3.30;81.90;;;;;;5072717;28;20212;-72
2022/02/25 05:21:58;;;;;;;22.17;20.70;;;3.50;83.60;;;;;;5072840;28;20250;-72
2022/02/25 05:24:25;;;;;;;22.63;20.88;;;3.50;81.00;;;;;;5072679;28;20204;-72
2022/02/25 05:26:52;;;;;;;21.10;19.50;;;3.60;81.40;;;;;;5072667;28;20666;-72
2022/02/25 05:29:19;;;;;;;21.92;20.73;;;3.60;87.10;;;;;;5072598;28;20295;-72
2022/02/25 05:31:47;;;;;;;21.73;20.33;;;3.60;85.20;;;;;;5072411;28;20227;-72
2022/02/25 05:34:14;;;;;;;22.05;20.55;;;3.70;85.80;;;;;;5072730;28;20293;-72
2022/02/25 05:36:41;;;;;;;23.00;21.70;;;3.70;84.70;;;;;;5072460;28;20247;-72
2022/02/25 05:39:08;;;;;;;22.10;20.55;;;3.70;83.80;;;;;;5072588;28;20289;-72
2022/02/25 05:41:35;;;;;;;21.58;19.90;;;3.70;85.10;;;;;;5072560;28;20299;-72
2022/02/25 05:44:02;;;;;;;21.00;19.50;;;3.70;87.00;;;;;;5072550;28;20623;-72
2022/02/25 05:46:29;;;;;;;22.55;20.92;;;3.80;83.20;;;;;;5071875;28;20270;-72
2022/02/25 05:48:57;;;;;;;22.10;20.42;;;3.80;80.70;;;;;;5072103;28;20300;-72
2022/02/25 05:51:24;;;;;;;22.85;21.33;;;3.80;80.30;;;;;;5072314;28;20650;-72
2022/02/25 05:53:51;;;;;;;22.70;21.33;;;3.90;79.70;;;;;;5072259;28;20581;-72
2022/02/25 05:56:18;;;;;;;22.58;20.58;;;3.90;79.40;;;;;;5072434;28;20565;-72
2022/02/25 05:58:45;;;;;;;22.40;20.80;;;3.90;79.00;;;;;;5072389;28;20717;-72
2022/02/25 06:01:12;;;;;;;23.13;21.70;;;3.70;79.40;;;;;;5072227;28;20304;-72
2022/02/25 06:03:39;;;;;;;24.13;22.40;;;3.80;79.70;;;;;;5072355;28;20665;-72
2022/02/25 06:06:07;;;;;;;22.80;20.85;;;3.90;79.00;;;;;;5072299;28;20675;-72
2022/02/25 06:08:35;;;;;;;22.50;20.98;;;3.80;86.40;;;;;;5072313;28;20219;-72
2022/02/25 06:11:02;;;;;;;21.92;20.52;;;3.70;84.00;;;;;;5071937;28;20233;-72
2022/02/25 06:13:29;;;;;;;21.75;20.38;;;3.70;82.80;;;;;;5072252;28;20551;-72
2022/02/25 06:15:56;;;;;;;23.60;22.20;;;3.60;81.90;;;;;;5072178;28;20632;-72
2022/02/25 06:18:23;;;;;;;22.38;20.98;;;3.60;81.70;;;;;;5071953;28;20231;-72
2022/02/25 06:20:50;;;;;;;21.83;20.50;;;3.60;82.80;;;;;;5072002;28;20300;-72
2022/02/25 06:23:21;;;;;;;23.85;22.10;;;3.60;83.30;;;;;;5072203;28;20190;-72
2022/02/25 06:25:48;;;;;;;24.55;22.70;;;3.60;83.80;;;;;;5072187;28;20199;-72
2022/02/25 06:28:16;;;;;;;23.33;21.58;;;3.60;83.80;;;;;;5072064;28;20194;-72
2022/02/25 06:30:43;;;;;;;21.52;20.25;;;3.60;81.20;;;;;;5071639;28;20212;-72
2022/02/25 06:33:09;;;;;;;25.27;23.13;;;3.60;81.50;;;;;;5071832;28;20667;-72
2022/02/25 06:35:37;;;;;;;24.67;23.17;;;3.50;81.80;;;;;;5072083;28;20250;-72
2022/02/25 06:38:04;;;;;;;26.30;24.40;;;3.50;82.00;;;;;;5071785;28;20308;-72
2022/02/25 06:40:32;;;;;;;21.45;20.05;;;3.40;81.90;;;;;;5071676;28;20193;-72
2022/02/25 06:42:59;;;;;;;24.42;22.95;;;3.40;82.10;;;;;;5071948;28;20619;-72
2022/02/25 06:45:26;;;;;;;25.48;23.42;;;3.50;82.70;;;;;;5071886;28;20207;-72
2022/02/25 06:47:53;;;;;;;22.25;20.75;;;3.50;83.30;;;;;;5071793;28;20232;-72
2022/02/25 06:50:20;;;;;;;23.23;21.17;;;3.50;81.70;;;;;;5071707;28;20205;-71
2022/02/25 06:52:48;;;;;;;23.77;21.55;;;3.50;83.00;;;;;;5071829;28;20236;-72
2022/02/25 06:55:17;;;;;;;20.98;19.77;;;3.60;85.10;;;;;;5072006;28;20197;-72
2022/02/25 06:57:46;;;;;;;24.50;22.42;;;3.60;84.40;;;;;;5071663;28;20264;-72
2022/02/25 07:00:21;;;;;;;23.00;21.55;;;3.70;82.70;;;;;;5075086;28;20251;-72
2022/02/25 07:02:49;;;;;;;22.88;21.35;;;3.70;81.40;;;;;;5058701;28;20223;-72
2022/02/25 07:05:16;;;;;;;25.30;23.55;;;3.60;81.30;;;;;;5075246;28;20205;-72
2022/02/25 07:07:43;;;;;;;25.20;23.40;;;3.70;80.90;;;;;;5075281;28;20736;-72
2022/02/25 07:10:10;;;;;;;22.88;21.48;;;3.80;80.60;;;;;;5075038;28;20204;-72
2022/02/25 07:12:37;;;;;;;24.73;22.63;;;3.90;80.40;;;;;;5075042;28;20305;-72
2022/02/25 07:15:08;;;;;;;22.55;21.05;;;3.90;79.50;;;;;;5075155;28;20202;-72
2022/02/25 07:17:35;;;;;;;23.40;21.77;;;3.90;79.20;;;;;;5075029;28;20309;-72
2022/02/25 07:20:03;;;;;;;22.67;21.27;;;3.90;79.10;;;;;;5074857;28;20232;-72
2022/02/25 07:22:30;;;;;;;22.67;21.27;;;4.10;79.10;;;;;;5074929;28;20213;-72
2022/02/25 07:24:57;;;;;;;25.02;23.20;;;4.20;80.10;;;;;;5074908;28;20201;-72
2022/02/25 07:27:24;;;;;;;22.73;21.10;;;4.30;80.00;;;;;;5074817;28;20198;-72
2022/02/25 07:29:52;;;;;;;23.10;21.80;;;4.40;78.70;;;;;;5074687;28;20288;-72
2022/02/25 07:32:20;;;;;;;24.40;22.60;;;4.50;77.60;;;;;;5074495;28;20217;-72
2022/02/25 07:34:48;;;;;;;22.65;20.95;;;4.60;76.60;;;;;;5074833;28;20254;-72
2022/02/25 07:37:15;;;;;;;22.88;21.05;;;4.60;76.40;;;;;;5074508;28;20217;-72
2022/02/25 07:39:41;;;;;;;23.55;21.63;;;4.60;76.40;;;;;;5074364;28;20291;-72
2022/02/25 07:42:08;;;;;;;24.20;22.27;;;4.70;76.10;;;;;;5074505;28;20699;-72
2022/02/25 07:44:35;;;;;;;21.30;20.10;;;4.80;79.20;;;;;;5074584;28;20201;-72
2022/02/25 07:47:02;;;;;;;22.67;21.38;;;4.80;77.70;;;;;;5074427;28;20246;-72
2022/02/25 07:49:31;;;;;;;23.42;21.83;;;4.80;78.80;;;;;;5074280;28;20252;-72
2022/02/25 07:51:59;;;;;;;22.58;21.17;;;5.00;77.00;;;;;;5074381;28;20805;-72
2022/02/25 07:54:25;;;;;;;21.73;20.35;;;5.20;76.80;;;;;;5074200;28;20210;-72
2022/02/25 07:56:53;;;;;;;23.20;21.67;;;5.30;75.60;;;;;;5074233;28;20733;-72
2022/02/25 07:59:20;;;;;;;22.92;21.25;;;5.40;74.80;;;;;;5074018;28;20636;-72
2022/02/25 08:01:47;;;;;;;23.95;22.10;;;5.40;73.60;;;;;;5074220;28;20254;-72
2022/02/25 08:04:13;;;;;;;23.70;22.08;;;5.60;72.80;;;;;;5074245;28;20194;-72
2022/02/25 08:06:44;;;;;;;23.85;22.05;;;5.60;71.60;;;;;;5074104;28;20205;-72
2022/02/25 08:09:11;;;;;;;22.40;20.95;;;5.70;71.10;;;;;;5073859;28;20202;-72
2022/02/25 08:11:38;;;;;;;24.60;22.48;;;5.80;71.10;;;;;;5073248;28;20219;-72
2022/02/25 08:14:05;;;;;;;23.77;21.77;;;5.80;70.30;;;;;;5073932;28;20206;-72
2022/02/25 08:16:32;;;;;;;25.63;21.35;;;5.80;70.50;;;;;;5073912;28;20565;-72
2022/02/25 08:18:59;;;;;;;22.75;21.25;;;5.90;70.80;;;;;;5073647;28;20283;-72
2022/02/25 08:21:26;;;;;;;26.30;24.45;;;6.00;69.60;;;;;;5073558;28;20782;-72
2022/02/25 08:23:54;;;;;;;25.60;23.70;;;6.00;69.30;;;;;;5073756;28;20229;-72
2022/02/25 08:26:21;;;;;;;23.80;21.90;;;6.00;69.30;;;;;;5073716;28;20214;-72
2022/02/25 08:28:48;;;;;;;23.98;22.30;;;6.10;69.60;;;;;;5073604;28;20195;-72
2022/02/25 08:31:15;;;;;;;23.02;21.15;;;6.10;68.40;;;;;;5073197;28;20308;-72
2022/02/25 08:33:42;;;;;;;25.52;23.83;;;6.00;68.70;;;;;;5073440;28;20209;-72
2022/02/25 08:36:09;;;;;;;24.40;22.85;;;6.00;68.80;;;;;;5073391;28;20208;-72
2022/02/25 08:38:36;;;;;;;24.67;23.13;;;6.10;68.60;;;;;;5073474;28;20222;-72
2022/02/25 08:41:04;;;;;;;24.88;23.10;;;6.10;68.40;;;;;;5073372;28;20239;-72
2022/02/25 08:43:31;;;;;;;24.90;23.33;;;6.00;68.40;;;;;;5073520;28;20290;-72
2022/02/25 08:45:58;;;;;;;25.48;23.55;;;6.10;68.50;;;;;;5073524;28;20198;-72
2022/02/25 08:48:25;;;;;;;27.63;26.08;;;6.20;68.30;;;;;;5073210;28;20697;-72
2022/02/25 08:50:53;;;;;;;26.95;24.75;;;6.10;68.10;;;;;;5073134;28;20300;-72
2022/02/25 08:53:20;;;;;;;22.52;20.95;;;6.20;68.20;;;;;;5073169;28;20244;-72
2022/02/25 08:55:50;;;;;;;26.52;24.35;;;6.20;67.90;;;;;;5073179;28;20285;-73
2022/02/25 08:58:20;;;;;;;24.70;22.65;;;6.30;68.10;;;;;;5073003;28;20217;-73
2022/02/25 09:00:47;;;;;;;23.52;21.75;;;6.30;68.50;;;;;;5072849;28;20313;-72
2022/02/25 09:03:15;;;;;;;23.60;22.00;;;6.50;67.90;;;;;;5073115;28;20592;-72
2022/02/25 09:05:42;;;;;;;24.10;22.50;;;6.40;67.60;;;;;;5073013;28;20206;-72
2022/02/25 09:08:09;;;;;;;24.25;22.55;;;6.40;67.80;;;;;;5073047;28;20201;-72
2022/02/25 09:10:36;;;;;;;25.25;22.65;;;6.50;66.90;;;;;;5072768;28;20222;-72
2022/02/25 09:13:03;;;;;;;24.05;22.35;;;6.50;66.60;;;;;;5072870;28;20195;-72
2022/02/25 09:15:31;;;;;;;23.65;21.83;;;6.50;66.90;;;;;;5072894;28;20244;-72
2022/02/25 09:17:59;;;;;;;24.63;22.80;;;6.50;66.80;;;;;;5072823;28;20226;-72
2022/02/25 09:20:28;;;;;;;24.85;23.02;;;6.60;67.00;;;;;;5072607;28;20232;-72
2022/02/25 09:22:55;;;;;;;25.00;23.17;;;6.70;66.30;;;;;;5072638;28;20298;-72
2022/02/25 09:25:22;;;;;;;24.73;22.60;;;6.80;66.20;;;;;;5072768;28;20595;-72
2022/02/25 09:27:52;;;;;;;23.95;22.55;;;6.80;65.70;;;;;;5072721;28;20196;-72
2022/02/25 09:30:19;;;;;;;23.98;21.80;;;6.90;65.90;;;;;;5072664;28;20213;-72
2022/02/25 09:32:47;;;;;;;24.50;22.40;;;6.80;64.00;;;;;;5072304;28;20222;-72
2022/02/25 09:35:14;;;;;;;24.50;22.67;;;6.90;64.50;;;;;;5072704;28;20253;-72
2022/02/25 09:37:42;;;;;;;23.02;21.25;;;7.10;64.70;;;;;;5072605;28;20294;-72
2022/02/25 09:40:11;;;;;;;24.67;22.55;;;7.10;62.80;;;;;;5072896;28;20207;-72
2022/02/25 09:42:40;;;;;;;24.85;22.70;;;7.10;62.90;;;;;;5073006;28;20735;-72
2022/02/25 09:45:09;;;;;;;24.98;22.67;;;7.20;62.40;;;;;;5072765;28;20207;-72
2022/02/25 09:47:36;;;;;;;23.98;22.05;;;7.10;61.60;;;;;;5072667;28;20284;-72
2022/02/25 09:50:07;;;;;;;24.50;22.42;;;7.20;61.50;;;;;;5072538;28;20230;-72
2022/02/25 09:52:36;;;;;;;25.40;23.63;;;7.40;61.70;;;;;;5073220;28;20254;-73
2022/02/25 09:55:06;;;;;;;22.60;21.15;;;7.60;60.60;;;;;;5072706;28;20238;-72
2022/02/25 09:57:33;;;;;;;26.20;24.23;;;7.80;59.20;;;;;;5072583;28;20286;-72
2022/02/25 10:00:00;;;;;;;23.90;22.25;;;7.70;58.50;;;;;;5072451;28;20273;-72
2022/02/25 10:02:39;;;;;;;24.55;23.02;;;7.60;58.90;;;;;;5072468;28;20254;-72
2022/02/25 10:05:12;;;;;;;22.48;20.98;;;7.60;59.60;;;;;;5072327;28;20208;-72
2022/02/25 10:07:40;;;;;;;25.52;23.05;;;7.70;59.40;;;;;;5072316;28;20224;-72
2022/02/25 10:10:08;;;;;;;24.85;22.65;;;7.90;59.30;;;;;;5072059;28;20620;-72
2022/02/25 10:12:35;;;;;;;25.00;23.25;;;8.00;59.20;;;;;;5072241;28;20299;-73
2022/02/25 10:15:03;;;;;;;23.73;21.85;;;8.20;58.50;;;;;;5072221;28;20199;-73
2022/02/25 10:17:32;;;;;;;23.30;21.60;;;8.30;57.80;;;;;;5072213;28;20200;-72
2022/02/25 10:20:02;;;;;;;22.83;21.40;;;8.30;57.70;;;;;;5071824;28;20247;-72
2022/02/25 10:22:32;;;;;;;26.63;24.02;;;8.40;57.90;;;;;;5071961;28;20244;-72
2022/02/25 10:25:01;;;;;;;23.65;21.80;;;8.40;57.80;;;;;;5072146;28;20242;-73
2022/02/25 10:27:33;;;;;;;23.90;21.98;;;8.40;57.30;;;;;;5071959;28;20285;-73
2022/02/25 10:30:05;;;;;;;24.27;22.60;;;8.00;56.90;;;;;;5071970;28;20282;-72
2022/02/25 10:32:38;;;;;;;24.35;22.80;;;7.80;57.80;;;;;;5071818;28;20218;-72
2022/02/25 10:35:24;;;;;;;23.70;22.27;;;7.90;57.60;;;;;;5075717;28;20204;-73
2022/02/25 10:38:01;;;;;;;24.70;22.80;;;7.90;57.30;;;;;;5075708;28;20560;-72
2022/02/25 10:40:31;;;;;;;41.60;25.15;;;7.80;57.80;;;;;;5075420;28;20252;-73
2022/02/25 10:42:58;;;;;;;25.73;23.77;;;8.00;58.50;;;;;;5075971;28;20226;-73
2022/02/25 10:45:31;;;;;;;74.55;30.63;;;8.20;57.60;;;;;;5075613;28;20663;-72
2022/02/25 10:48:00;;;;;;;24.02;22.02;;;8.40;57.40;;;;;;5075634;28;20291;-73
2022/02/25 10:50:28;;;;;;;24.80;22.55;;;8.60;56.50;;;;;;5075300;28;20283;-72
2022/02/25 10:52:56;;;;;;;23.90;22.08;;;8.80;55.50;;;;;;5075480;28;20261;-72
2022/02/25 10:55:27;;;;;;;26.55;24.45;;;8.90;54.00;;;;;;5075385;28;20287;-73
2022/02/25 10:57:56;;;;;;;22.98;21.45;;;9.10;53.70;;;;;;5075303;28;20669;-73
2022/02/25 11:00:25;;;;;;;23.73;21.95;;;9.00;54.00;;;;;;5075166;28;20199;-73
2022/02/25 11:02:59;;;;;;;23.55;22.25;;;9.10;54.10;;;;;;5075445;28;20235;-73
2022/02/25 11:05:27;;;;;;;24.05;22.75;;;9.20;53.10;;;;;;5075289;28;20303;-73
2022/02/25 11:07:56;;;;;;;24.33;22.88;;;9.30;52.80;;;;;;5075205;28;20564;-72
2022/02/25 11:10:26;;;;;;;24.00;22.70;;;8.90;51.70;;;;;;5074908;28;20289;-72
2022/02/25 11:12:56;;;;;;;23.58;21.98;;;9.00;52.30;;;;;;5075134;28;20277;-72
2022/02/25 11:15:27;;;;;;;23.90;22.30;;;8.90;53.70;;;;;;5075288;28;20201;-72
2022/02/25 11:17:54;;;;;;;24.67;23.17;;;9.00;55.00;;;;;;5075267;28;20294;-72
2022/02/25 11:20:22;;;;;;;23.05;21.65;;;9.10;54.30;;;;;;5074872;28;20665;-72
2022/02/25 11:22:57;;;;;;;25.17;23.50;;;9.30;53.60;;;;;;5074933;28;20656;-72
2022/02/25 11:25:26;;;;;;;23.48;21.77;;;9.30;52.90;;;;;;5074952;28;20192;-73
2022/02/25 11:27:56;;;;;;;25.10;23.70;;;9.30;51.10;;;;;;5074844;28;20192;-72
2022/02/25 11:30:28;;;;;;;22.05;20.63;;;9.20;51.20;;;;;;5074751;28;20671;-73
2022/02/25 11:32:59;;;;;;;24.60;23.20;;;9.20;51.40;;;;;;5074570;28;20707;-72
2022/02/25 11:35:28;;;;;;;23.40;22.00;;;8.90;51.90;;;;;;5074627;28;20199;-72
2022/02/25 11:38:07;;;;;;;22.83;21.33;;;8.30;50.20;;;;;;5074575;28;20210;-72
2022/02/25 11:41:00;;;;;;;23.58;22.48;;;8.00;51.70;;;;;;5074561;28;20614;-72
2022/02/25 11:43:39;;;;;;;23.20;21.75;;;8.20;52.70;;;;;;5070325;28;20629;-73
2022/02/25 11:46:11;;;;;;;23.63;22.17;;;8.40;53.10;;;;;;5073525;28;20293;-72
2022/02/25 11:48:43;;;;;;;23.17;21.73;;;8.60;53.00;;;;;;5074533;28;20198;-72
2022/02/25 11:51:26;;;;;;;24.05;22.55;;;8.80;50.90;;;;;;5074415;28;20675;-72
2022/02/25 11:54:27;;;;;;;23.40;22.08;;;8.60;51.50;;;;;;5074215;28;20212;-72
2022/02/25 11:57:24;;;;;;;23.88;22.38;;;8.60;51.10;;;;;;5074532;28;20677;-72
2022/02/25 12:00:16;;;;;;;23.25;21.50;;;8.40;51.20;;;;;;5073968;28;20229;-72
2022/02/25 12:03:08;;;;;;;23.98;22.38;;;8.50;51.80;;;;;;5074339;28;20220;-72
2022/02/25 12:05:45;;;;;;;23.23;21.48;;;8.30;52.20;;;;;;5074112;28;20192;-72
2022/02/25 12:08:26;;;;;;;23.83;22.38;;;8.50;53.20;;;;;;5074190;28;20198;-72
2022/02/25 12:10:54;;;;;;;26.02;23.70;;;8.60;53.40;;;;;;5073821;28;20309;-72
2022/02/25 12:13:26;;;;;;;23.95;22.35;;;9.00;53.00;;;;;;5074056;28;20195;-72
2022/02/25 12:15:53;;;;;;;25.20;23.52;;;9.30;52.10;;;;;;5074010;28;20200;-72
2022/02/25 12:18:36;;;;;;;23.65;22.25;;;9.40;51.20;;;;;;5073990;28;20218;-72
2022/02/25 12:21:03;;;;;;;23.25;21.73;;;9.20;51.80;;;;;;5073519;28;20251;-72
2022/02/25 12:23:43;;;;;;;22.60;21.20;;;9.40;52.10;;;;;;5073722;28;20283;-73
2022/02/25 12:26:10;;;;;;;22.33;20.80;;;9.60;51.90;;;;;;5073799;28;20245;-72
2022/02/25 12:28:51;;;;;;;25.52;24.15;;;9.50;51.10;;;;;;5073627;28;20254;-72
2022/02/25 12:31:20;;;;;;;24.27;22.65;;;9.40;51.00;;;;;;5073299;28;20220;-72
2022/02/25 12:34:19;;;;;;;23.10;21.67;;;9.00;51.60;;;;;;5073559;28;20211;-72
2022/02/25 12:36:46;;;;;;;23.85;22.10;;;8.80;52.70;;;;;;5057715;28;20213;-72
2022/02/25 12:39:19;;;;;;;23.00;21.80;;;8.80;53.20;;;;;;5073355;28;20223;-72
2022/02/25 12:41:47;;;;;;;23.02;21.63;;;8.80;52.90;;;;;;5073517;28;20227;-72
2022/02/25 12:44:17;;;;;;;23.73;22.13;;;8.90;53.30;;;;;;5073524;28;20205;-72
2022/02/25 12:46:47;;;;;;;22.95;21.42;;;9.00;53.00;;;;;;5073363;28;20201;-72
2022/02/25 12:49:17;;;;;;;23.27;21.77;;;9.00;53.30;;;;;;5073255;28;20285;-72